Del Norte, CO

5:54 PM MDT on August 03, 2015 (GMT -0600)
KCOSOUTH3 | | Change Station
CLOSE
Current Station
Personal Weather Station
Location: South Fork, CO
Elevation: 8325 ft
Nearby Weather Stations

Elev 8325 ft 37.73 °N, 106.72 °W | Updated 4 minutes ago

Partly Cloudy
Partly Cloudy
67.3 °F
Feels Like 67.3 °F
N
0.0
Wind Variable Wind from ESE
Gusts 1.0 mph

Today
High -- | Low -- °F
--% Chance of Precip.
Yesterday
High -- | Low -- °F
Precip. -- in
6:11 AM 8:12 PM
Waning Gibbous, 83% visible
Pressure 29.94 in
Visibility 10.0 miles
Clouds Clear
Dew Point 46 °F
Humidity 47%
Rainfall 0.02 in
Snow Depth Not available.
UV 3 out of 12
Pollen 6.80 out of 12
Air Quality Not available.
Flu Activity Not available.
METAR KALS 032352Z AUTO 33005KT 10SM CLR 22/07 A3022 RMK AO2 LTG DSNT W SLP139 60001 T02220067 10239 20172 58006

More Conditions Fewer Conditions

Pressure 29.94 in
Visibility 10.0 miles
Clouds Clear
Dew Point 46 °F
Humidity 47%
Rainfall 0.02 in
Snow Depth Not available.
UV 3 out of 12
Pollen 6.80 out of 12
Air Quality Not available.
Flu Activity Not available.
METAR KALS 032352Z AUTO 33005KT 10SM CLR 22/07 A3022 RMK AO2 LTG DSNT W SLP139 60001 T02220067 10239 20172 58006

More Conditions Fewer Conditions

10-Day Weather Forecast

×

Almanac

Astronomy

Aug. 03, 2015 Rise Set
Actual Time
Civil Twilight
Nautical Twilight
Astronomical Twilight
Moon
Length of Visible Light
Length of Day
Tomorrow will be .
, % of the Moon is Illuminated

Today's Extremes

State Highs State Lows

Community

WunderPhotos

Upload Photos

1,843,791 photos uploaded!

WunderBlogs® & News

Nearby

Air Quality

  Air Quality AQ Index Pollutant
Not available.

Snow Depth

Station Depth Elevation

Earthquake Activity

City Distance Mag. Time & Date
Minimum magnitude displayed is 2.5.

Coastal Water Temperatures

Place Temperature

Stations

Nearby Weather Stations

Station Location Temp. Windchill Dew Point Humidity Wind Precip. Elev Updated Type